Time;durP1;ratioP1;P1;durP2;ratioP2;P2;SDS_P1;SDS_P2;PMS_P1;PMS_P2;Temp;Humidity;BMP_temperature;BMP_pressure;BME280_temperature;BME280_humidity;BME280_pressure;Samples;Min_cycle;Max_cycle;Signal;HPM_P1;HPM_P2
2022/01/22 00:00:16;;;;;;;25.77;9.73;;;;;;;3.79;90.88;103266.31;5052851;28;20074;-54
2022/01/22 00:02:42;;;;;;;24.05;10.15;;;;;;;3.78;91.15;103272.84;5052633;28;20021;-54
2022/01/22 00:05:10;;;;;;;21.80;9.43;;;;;;;3.81;90.32;103275.19;5052064;28;20033;-51
2022/01/22 00:07:35;;;;;;;24.27;10.90;;;;;;;3.75;90.51;103268.63;5050827;28;20036;-51
2022/01/22 00:10:03;;;;;;;25.70;11.25;;;;;;;3.75;90.64;103263.97;5052050;28;20077;-50
2022/01/22 00:12:45;;;;;;;25.13;10.43;;;;;;;3.74;91.07;103270.50;5051981;28;20118;-53
2022/01/22 00:15:13;;;;;;;22.20;10.52;;;;;;;3.80;90.21;103279.81;5052547;28;20040;-53
2022/01/22 00:17:39;;;;;;;21.67;10.23;;;;;;;3.77;90.52;103274.75;5052287;28;20029;-53
2022/01/22 00:20:05;;;;;;;21.60;10.35;;;;;;;3.79;90.95;103266.31;5051927;28;20115;-52
2022/01/22 00:22:33;;;;;;;22.38;10.52;;;;;;;3.80;90.50;103265.28;5052770;28;20239;-51
2022/01/22 00:25:01;;;;;;;21.25;9.63;;;;;;;3.87;90.37;103258.78;5051958;28;20032;-51
2022/01/22 00:27:27;;;;;;;21.02;10.25;;;;;;;3.88;90.06;103257.72;5051999;28;20487;-52
2022/01/22 00:29:53;;;;;;;21.65;10.55;;;;;;;3.87;89.98;103255.22;5051995;28;20422;-51
2022/01/22 00:32:19;;;;;;;23.00;11.15;;;;;;;3.86;90.35;103254.38;5054674;28;20090;-53
2022/01/22 00:34:44;;;;;;;23.70;11.02;;;;;;;3.84;90.64;103250.13;5055779;28;20426;-54
2022/01/22 00:37:10;;;;;;;24.15;11.05;;;;;;;3.85;91.07;103254.56;5055412;28;20115;-54
2022/01/22 00:39:35;;;;;;;20.98;10.68;;;;;;;3.88;90.79;103255.00;5054989;28;20059;-52
2022/01/22 00:42:02;;;;;;;20.95;11.13;;;;;;;3.90;90.76;103252.91;5054549;28;20032;-53
2022/01/22 00:44:28;;;;;;;20.85;10.43;;;;;;;3.99;89.98;103248.13;5055284;28;20051;-51
2022/01/22 00:46:53;;;;;;;22.52;10.90;;;;;;;3.98;89.95;103237.34;5055440;28;20472;-53
2022/01/22 00:49:19;;;;;;;22.77;11.13;;;;;;;3.96;90.08;103242.22;5055342;28;20025;-53
2022/01/22 00:51:44;;;;;;;21.58;11.40;;;;;;;3.98;90.08;103248.31;5055605;28;20103;-53
2022/01/22 00:54:10;;;;;;;23.17;11.77;;;;;;;3.95;89.71;103252.31;5055653;28;20029;-52
2022/01/22 00:56:35;;;;;;;24.30;11.90;;;;;;;3.95;90.77;103262.44;5055553;28;20025;-53
2022/01/22 00:59:00;;;;;;;24.17;12.27;;;;;;;3.90;90.07;103246.59;5054710;28;20021;-52
2022/01/22 01:01:26;;;;;;;22.83;11.65;;;;;;;3.93;90.48;103261.78;5054832;28;20064;-54
2022/01/22 01:03:52;;;;;;;21.88;12.00;;;;;;;3.93;90.39;103262.59;5055085;28;20055;-54
2022/01/22 01:06:17;;;;;;;23.73;12.18;;;;;;;3.95;90.52;103259.69;5054815;28;20057;-54
2022/01/22 01:08:43;;;;;;;22.80;12.68;;;;;;;3.97;89.63;103263.09;5055368;28;20032;-54
2022/01/22 01:11:11;;;;;;;24.58;13.20;;;;;;;3.95;90.63;103260.53;5055321;28;20445;-54
2022/01/22 01:13:42;;;;;;;24.85;12.38;;;;;;;3.96;90.39;103267.69;5054513;28;20052;-54
2022/01/22 01:16:42;;;;;;;23.52;12.98;;;;;;;4.00;90.04;103265.38;5054247;28;20468;-53
2022/01/22 01:35:29;;;;;;;24.88;12.77;;;;;;;3.92;91.39;103262.81;5054594;28;20041;-55
2022/01/22 01:37:57;;;;;;;24.90;12.05;;;;;;;3.92;91.46;103268.28;5055042;28;20021;-51
2022/01/22 01:40:24;;;;;;;23.38;12.80;;;;;;;3.91;92.00;103272.94;5054995;28;20029;-54
2022/01/22 01:43:03;;;;;;;26.63;13.90;;;;;;;3.90;92.21;103280.28;5053269;28;20033;-50
2022/01/22 01:45:29;;;;;;;25.92;13.82;;;;;;;3.87;92.13;103286.16;5054393;28;20036;-52
2022/01/22 01:47:57;;;;;;;23.88;13.68;;;;;;;3.83;93.25;103281.28;5053962;28;20025;-52
2022/01/22 01:50:22;;;;;;;27.77;13.75;;;;;;;3.86;93.07;103276.28;5054053;28;20055;-53
2022/01/22 01:52:53;;;;;;;26.48;13.95;;;;;;;3.90;92.66;103277.56;5054171;28;20049;-54
2022/01/22 01:55:33;;;;;;;24.48;13.80;;;;;;;3.85;92.98;103274.59;5054310;28;20043;-53
2022/01/22 01:57:59;;;;;;;25.05;12.55;;;;;;;3.87;93.23;103269.72;5054826;28;20112;-54
2022/01/22 02:00:26;;;;;;;26.25;13.90;;;;;;;3.85;92.88;103265.50;5053992;28;20025;-53
2022/01/22 02:02:53;;;;;;;26.17;13.82;;;;;;;3.82;93.44;103260.47;5053578;28;20037;-51
2022/01/22 02:05:21;;;;;;;25.42;13.95;;;;;;;3.72;94.10;103256.19;5053883;28;20024;-55
2022/01/22 02:07:47;;;;;;;26.23;14.30;;;;;;;3.80;93.97;103262.53;5053745;28;20031;-52
2022/01/22 02:10:20;;;;;;;26.63;14.45;;;;;;;3.86;94.36;103267.22;5053860;28;20116;-54
2022/01/22 02:23:37;;;;;;;25.52;15.25;;;;;;;3.79;95.37;103263.59;5054412;28;20139;-53
2022/01/22 02:26:07;;;;;;;26.42;15.43;;;;;;;3.78;94.92;103253.69;5054219;28;20033;-51
2022/01/22 02:28:33;;;;;;;26.10;14.80;;;;;;;3.78;95.47;103265.47;5054117;28;20112;-54
2022/01/22 02:31:08;;;;;;;28.00;14.38;;;;;;;3.79;95.45;103258.13;5053295;28;20044;-52
2022/01/22 02:36:25;;;;;;;28.13;15.65;;;;;;;3.79;95.36;103258.94;5053831;28;20547;-52
2022/01/22 02:38:57;;;;;;;28.73;16.10;;;;;;;3.74;95.45;103256.81;5053603;28;20107;-53
2022/01/22 02:41:24;;;;;;;26.15;15.77;;;;;;;3.78;95.54;103256.41;5053105;28;20506;-55
2022/01/22 02:43:52;;;;;;;25.60;15.98;;;;;;;3.76;95.69;103264.84;5053128;28;20029;-53
2022/01/22 02:46:21;;;;;;;28.27;15.68;;;;;;;3.78;95.60;103259.16;5052918;28;20086;-52
2022/01/22 02:48:46;;;;;;;27.10;15.80;;;;;;;3.78;95.91;103254.50;5053337;28;20025;-55
2022/01/22 02:51:12;;;;;;;24.63;14.95;;;;;;;3.81;95.88;103262.34;5053195;28;20033;-52
2022/01/22 02:53:37;;;;;;;26.48;15.52;;;;;;;3.81;95.82;103258.75;5053058;28;20029;-52
2022/01/22 02:56:03;;;;;;;27.15;15.57;;;;;;;3.80;96.49;103257.06;5052609;28;20028;-53
2022/01/22 02:58:28;;;;;;;26.55;15.48;;;;;;;3.85;96.21;103255.41;5053605;28;20060;-52
2022/01/22 03:00:53;;;;;;;27.75;14.43;;;;;;;3.85;95.93;103258.16;5052540;28;20055;-53
2022/01/22 03:03:19;;;;;;;28.25;15.80;;;;;;;3.83;95.71;103268.47;5052610;28;20029;-54
2022/01/22 03:05:44;;;;;;;29.83;17.00;;;;;;;3.85;95.98;103266.38;5053030;28;20024;-54
2022/01/22 03:08:11;;;;;;;30.45;16.90;;;;;;;3.80;96.76;103271.59;5053007;28;20021;-50
2022/01/22 03:10:37;;;;;;;28.38;16.88;;;;;;;3.81;96.86;103270.56;5052195;28;20494;-53
2022/01/22 03:18:35;;;;;;;28.90;15.90;;;;;;;3.87;96.41;103266.16;5051921;28;20439;-54
2022/01/22 03:21:09;;;;;;;30.48;16.73;;;;;;;3.88;96.06;103256.91;5051752;28;20033;-54
2022/01/22 03:29:08;;;;;;;;;;;;;;;3.95;95.44;103256.94;5053085;28;20075;-53
2022/01/22 03:31:33;;;;;;;28.88;16.50;;;;;;;3.87;95.74;103269.72;5052624;28;19908;-54
2022/01/22 03:33:59;;;;;;;29.00;18.27;;;;;;;3.85;96.88;103255.41;5051770;28;20029;-55
2022/01/22 03:36:29;;;;;;;32.22;17.98;;;;;;;3.87;96.92;103264.25;5052022;28;20021;-52
2022/01/22 03:38:54;;;;;;;35.97;19.27;;;;;;;3.84;96.54;103267.41;5052217;28;20465;-55
2022/01/22 03:41:19;;;;;;;30.33;19.33;;;;;;;3.83;96.83;103263.00;5052001;28;20025;-51
2022/01/22 03:43:45;;;;;;;35.45;18.65;;;;;;;3.82;97.18;103266.78;5052537;28;20060;-54
2022/01/22 03:46:10;;;;;;;31.38;18.35;;;;;;;3.85;96.90;103277.34;5052417;28;20086;-51
2022/01/22 03:48:35;;;;;;;33.42;19.65;;;;;;;3.87;97.32;103269.72;5051872;28;20053;-52
2022/01/22 03:51:01;;;;;;;31.92;19.90;;;;;;;3.81;96.94;103270.56;5050872;28;20055;-51
2022/01/22 03:53:27;;;;;;;33.92;19.27;;;;;;;3.89;97.47;103267.66;5052669;28;20044;-54
2022/01/22 03:56:02;;;;;;;32.63;20.15;;;;;;;3.90;97.49;103265.78;5052563;28;20148;-54
2022/01/22 03:58:32;;;;;;;35.35;20.50;;;;;;;3.87;97.44;103269.72;5052347;28;20082;-55
2022/01/22 04:03:42;;;;;;;36.60;20.65;;;;;;;3.89;97.99;103278.59;5052163;28;20041;-55
2022/01/22 04:08:37;;;;;;;34.28;19.95;;;;;;;3.96;97.74;103275.91;5056468;28;20404;-55
2022/01/22 04:11:04;;;;;;;33.63;19.83;;;;;;;3.94;97.79;103267.03;5056045;28;20029;-54
2022/01/22 04:13:33;;;;;;;33.78;20.33;;;;;;;3.89;98.68;103262.16;5056162;28;20033;-52
2022/01/22 04:15:59;;;;;;;35.72;20.13;;;;;;;3.90;98.29;103271.25;5056508;28;20036;-55
2022/01/22 04:26:41;;;;;;;35.28;20.88;;;;;;;3.95;98.68;103265.16;5056171;28;20064;-52
2022/01/22 04:29:06;;;;;;;34.83;20.63;;;;;;;3.96;98.63;103270.44;5055765;28;20029;-52
2022/01/22 04:31:32;;;;;;;33.28;19.60;;;;;;;4.00;99.20;103268.13;5055744;28;20111;-54
2022/01/22 04:33:57;;;;;;;35.42;20.08;;;;;;;3.97;98.70;103283.09;5055201;28;20057;-54
2022/01/22 04:36:22;;;;;;;34.38;21.17;;;;;;;3.99;98.33;103272.78;5054923;28;20033;-52
2022/01/22 04:38:48;;;;;;;34.83;20.02;;;;;;;3.99;99.36;103271.91;5055413;28;20021;-53
2022/01/22 04:41:13;;;;;;;34.47;20.52;;;;;;;4.02;98.74;103271.53;5055680;28;20082;-53
2022/01/22 04:43:41;;;;;;;36.20;21.27;;;;;;;4.01;99.28;103273.44;5055610;28;20415;-53
2022/01/22 04:46:18;;;;;;;36.97;21.70;;;;;;;4.01;99.37;103265.22;5055752;28;20029;-54
2022/01/22 04:56:55;;;;;;;37.85;22.08;;;;;;;4.02;99.40;103277.84;5055720;28;20048;-55
2022/01/22 04:59:20;;;;;;;39.10;22.02;;;;;;;4.02;99.41;103268.78;5055341;28;20021;-55
2022/01/22 05:01:47;;;;;;;41.65;24.30;;;;;;;3.96;99.93;103278.66;5055291;28;20143;-53
2022/01/22 05:04:12;;;;;;;39.53;23.25;;;;;;;3.96;100.00;103283.28;5054811;28;20040;-55
2022/01/22 05:06:37;;;;;;;40.08;23.10;;;;;;;3.97;100.00;103274.03;5054948;28;20025;-55
2022/01/22 05:09:02;;;;;;;38.00;22.50;;;;;;;3.97;100.00;103280.34;5053913;28;20052;-54
2022/01/22 05:11:28;;;;;;;38.58;22.90;;;;;;;3.98;100.00;103262.00;5055335;28;20464;-55
2022/01/22 05:13:53;;;;;;;37.45;21.70;;;;;;;4.02;100.00;103271.53;5054966;28;20028;-54
2022/01/22 05:16:20;;;;;;;37.17;23.13;;;;;;;4.03;100.00;103256.78;5054891;28;20047;-53
2022/01/22 05:18:53;;;;;;;38.65;21.75;;;;;;;4.05;100.00;103251.94;5054564;28;20476;-55
2022/01/22 05:21:20;;;;;;;38.65;21.25;;;;;;;4.03;100.00;103257.63;5055059;28;20092;-55
2022/01/22 05:23:46;;;;;;;39.55;21.50;;;;;;;4.04;100.00;103250.25;5054121;28;20108;-53
2022/01/22 05:26:42;;;;;;;42.45;23.45;;;;;;;4.04;100.00;103258.47;5055087;28;20051;-52
2022/01/22 05:29:17;;;;;;;41.28;22.08;;;;;;;4.06;100.00;103262.69;5054607;28;20036;-51
2022/01/22 05:37:05;;;;;;;36.53;21.83;;;;;;;4.09;100.00;103250.47;5055040;28;20495;-53
2022/01/22 05:39:32;;;;;;;42.67;23.00;;;;;;;4.12;100.00;103258.31;5054520;28;20066;-53
2022/01/22 05:41:59;;;;;;;40.42;22.45;;;;;;;4.12;100.00;103261.03;5054629;28;20029;-55
2022/01/22 05:44:25;;;;;;;38.97;23.02;;;;;;;4.11;100.00;103259.34;5054486;28;20033;-52
2022/01/22 05:46:53;;;;;;;42.10;24.50;;;;;;;4.13;100.00;103260.00;5054506;28;20033;-51
2022/01/22 05:49:21;;;;;;;39.45;23.13;;;;;;;4.14;100.00;103258.09;5054614;28;20025;-53
2022/01/22 05:51:48;;;;;;;40.10;23.42;;;;;;;4.15;100.00;103260.66;5055023;28;20099;-54
2022/01/22 05:54:44;;;;;;;37.17;22.25;;;;;;;4.13;100.00;103262.75;5054466;28;20111;-55
2022/01/22 05:59:45;;;;;;;38.05;22.00;;;;;;;4.12;100.00;103268.41;5054531;28;20570;-52
2022/01/22 06:02:17;;;;;;;40.85;23.27;;;;;;;4.12;100.00;103262.91;5054475;28;20100;-55
2022/01/22 06:04:43;;;;;;;37.40;22.83;;;;;;;4.08;100.00;103257.00;5053992;28;20052;-53
2022/01/22 06:07:10;;;;;;;40.58;23.92;;;;;;;4.10;100.00;103268.63;5052860;28;20025;-54
2022/01/22 06:09:44;;;;;;;43.13;23.65;;;;;;;4.12;100.00;103266.53;5054081;28;20029;-53
2022/01/22 06:14:35;;;;;;;38.45;22.15;;;;;;;4.15;99.86;103266.13;5054273;28;20023;-54
2022/01/22 06:17:01;;;;;;;39.00;22.27;;;;;;;4.16;100.00;103262.31;5053920;28;20112;-54
2022/01/22 06:19:27;;;;;;;44.05;23.83;;;;;;;4.15;100.00;103255.16;5054072;28;20024;-53
2022/01/22 06:21:52;;;;;;;36.10;21.13;;;;;;;4.18;100.00;103264.88;5054063;28;20036;-53
2022/01/22 06:24:18;;;;;;;39.40;21.23;;;;;;;4.19;100.00;103263.81;5053158;28;20282;-51
2022/01/22 06:26:44;;;;;;;38.97;21.55;;;;;;;4.20;100.00;103266.34;5053132;28;20029;-53
2022/01/22 06:29:09;;;;;;;36.33;20.73;;;;;;;4.18;100.00;103268.44;5052548;28;20029;-54
2022/01/22 06:31:35;;;;;;;40.80;21.60;;;;;;;4.23;100.00;103267.81;5053021;28;20036;-53
2022/01/22 06:34:01;;;;;;;40.10;21.90;;;;;;;4.21;100.00;103268.03;5053325;28;20439;-54
2022/01/22 06:36:27;;;;;;;38.97;21.30;;;;;;;4.24;100.00;103275.00;5053682;28;20040;-55
2022/01/22 06:38:58;;;;;;;39.88;21.25;;;;;;;4.27;100.00;103274.59;5053358;28;20115;-53
2022/01/22 06:44:07;;;;;;;;;;;;;;;4.26;100.00;103281.13;5053995;28;20040;-53
2022/01/22 06:46:33;;;;;;;36.97;20.75;;;;;;;4.21;100.00;103295.44;5053287;28;19913;-55
2022/01/22 06:48:58;;;;;;;42.72;22.00;;;;;;;4.22;100.00;103282.56;5052958;28;20032;-54
2022/01/22 06:51:25;;;;;;;38.35;19.83;;;;;;;4.25;100.00;103282.19;5052870;28;20076;-55
2022/01/22 06:53:52;;;;;;;38.72;20.25;;;;;;;4.27;100.00;103288.31;5053589;28;20029;-52
2022/01/22 06:56:21;;;;;;;39.03;20.58;;;;;;;4.28;100.00;103297.34;5053677;28;20071;-54
2022/01/22 06:58:49;;;;;;;35.70;19.65;;;;;;;4.29;100.00;103282.63;5052805;28;20032;-53
2022/01/22 07:01:15;;;;;;;35.10;18.73;;;;;;;4.33;100.00;103297.63;5052904;28;20032;-55
2022/01/22 07:03:41;;;;;;;35.03;19.25;;;;;;;4.31;100.00;103295.06;5052918;28;20028;-55
2022/01/22 07:06:06;;;;;;;34.58;18.20;;;;;;;4.37;100.00;103290.66;5053070;28;20178;-55
2022/01/22 07:08:31;;;;;;;39.15;19.13;;;;;;;4.36;100.00;103288.97;5053169;28;20047;-53
2022/01/22 07:10:56;;;;;;;35.97;17.73;;;;;;;4.31;100.00;103294.22;5052768;28;20025;-55
2022/01/22 07:13:22;;;;;;;32.85;16.60;;;;;;;4.29;100.00;103299.91;5052132;28;20032;-53
2022/01/22 07:15:47;;;;;;;34.33;16.92;;;;;;;4.29;100.00;103302.66;5052215;28;20476;-53
2022/01/22 07:18:13;;;;;;;35.05;16.83;;;;;;;4.27;100.00;103318.44;5053405;28;20039;-54
2022/01/22 07:20:41;;;;;;;33.70;17.02;;;;;;;4.28;100.00;103314.66;5052950;28;20029;-54
2022/01/22 07:25:51;;;;;;;30.67;17.23;;;;;;;4.39;100.00;103328.84;5053298;28;20112;-53
2022/01/22 07:28:17;;;;;;;32.58;16.67;;;;;;;4.40;100.00;103328.63;5052943;28;20384;-55
2022/01/22 07:30:44;;;;;;;34.70;16.65;;;;;;;4.42;100.00;103328.41;5053116;28;20086;-54
2022/01/22 07:33:10;;;;;;;29.55;15.10;;;;;;;4.50;100.00;103325.50;5052273;28;20017;-55
2022/01/22 07:35:35;;;;;;;29.00;15.95;;;;;;;4.53;100.00;103331.41;5052664;28;20028;-54
2022/01/22 07:38:01;;;;;;;30.40;15.52;;;;;;;4.55;100.00;103328.50;5052567;28;20309;-55
2022/01/22 07:40:27;;;;;;;35.28;17.42;;;;;;;4.56;100.00;103329.31;5052801;28;20035;-52
2022/01/22 07:42:52;;;;;;;31.40;17.73;;;;;;;4.52;100.00;103335.22;5051582;28;20032;-53
2022/01/22 07:45:18;;;;;;;31.90;16.85;;;;;;;4.51;100.00;103336.28;5052566;28;20400;-54
2022/01/22 07:47:43;;;;;;;29.95;15.27;;;;;;;4.53;100.00;103339.63;5052442;28;20112;-55
2022/01/22 07:50:09;;;;;;;31.48;16.15;;;;;;;4.56;99.95;103340.28;5052594;28;20025;-54
2022/01/22 07:52:34;;;;;;;32.55;16.75;;;;;;;4.55;100.00;103339.47;5052326;28;20495;-55
2022/01/22 07:55:00;;;;;;;30.17;16.25;;;;;;;4.55;100.00;103331.22;5052354;28;20021;-55
2022/01/22 07:57:25;;;;;;;30.05;16.58;;;;;;;4.58;100.00;103328.06;5052663;28;20098;-56
2022/01/22 07:59:50;;;;;;;32.47;17.20;;;;;;;4.59;100.00;103332.50;5052210;28;20035;-54
2022/01/22 08:02:16;;;;;;;31.88;17.27;;;;;;;4.63;100.00;103330.22;5052302;28;20095;-56
2022/01/22 08:04:41;;;;;;;34.88;17.40;;;;;;;4.65;99.76;103328.97;5052637;28;20100;-53
2022/01/22 08:07:08;;;;;;;34.10;17.48;;;;;;;4.64;99.89;103321.78;5053057;28;20048;-55
2022/01/22 08:09:33;;;;;;;36.28;17.20;;;;;;;4.67;99.84;103320.50;5052580;28;20051;-54
2022/01/22 08:11:59;;;;;;;35.47;17.80;;;;;;;4.67;99.81;103313.16;5052382;28;20500;-55
2022/01/22 08:14:24;;;;;;;30.85;17.17;;;;;;;4.64;99.85;103321.78;5052480;28;20021;-54
2022/01/22 08:16:50;;;;;;;33.22;17.70;;;;;;;4.65;99.31;103331.69;5052326;28;20074;-54
2022/01/22 08:19:16;;;;;;;32.60;16.25;;;;;;;4.68;99.32;103324.94;5052387;28;20373;-53
2022/01/22 08:21:44;;;;;;;34.58;17.02;;;;;;;4.68;99.77;103323.03;5052217;28;20362;-52
2022/01/22 08:24:11;;;;;;;32.47;16.30;;;;;;;4.75;99.57;103325.81;5052397;28;20095;-55
2022/01/22 08:26:41;;;;;;;33.03;16.85;;;;;;;4.75;99.37;103330.47;5052358;28;20033;-55
2022/01/22 08:29:06;;;;;;;32.13;17.13;;;;;;;4.77;99.69;103331.13;5052207;28;20020;-55
2022/01/22 08:36:44;;;;;;;33.45;16.55;;;;;;;4.84;99.12;103318.25;5052938;28;20120;-55
2022/01/22 08:39:09;;;;;;;29.25;15.52;;;;;;;4.88;99.26;103324.19;5052057;28;20167;-53
2022/01/22 08:41:35;;;;;;;32.42;15.73;;;;;;;4.89;99.20;103323.97;5052168;28;20551;-53
2022/01/22 08:44:02;;;;;;;31.15;15.77;;;;;;;4.88;98.71;103318.69;5051989;28;20044;-54
2022/01/22 08:46:29;;;;;;;33.95;15.50;;;;;;;4.87;98.91;103334.28;5052069;28;20044;-54
2022/01/22 08:48:54;;;;;;;33.38;16.00;;;;;;;4.87;99.13;103325.22;5052293;28;20047;-54
2022/01/22 08:51:20;;;;;;;31.17;15.75;;;;;;;4.91;99.35;103329.25;5051952;28;20029;-53
2022/01/22 08:53:47;;;;;;;32.17;15.45;;;;;;;4.92;99.09;103341.91;5054987;28;20025;-52
2022/01/22 08:56:12;;;;;;;31.45;16.35;;;;;;;4.94;99.20;103346.16;5055342;28;20143;-53
2022/01/22 08:58:38;;;;;;;30.80;15.95;;;;;;;4.97;98.88;103350.38;5055689;28;20107;-54
2022/01/22 09:01:04;;;;;;;33.85;17.77;;;;;;;4.98;98.73;103358.38;5055434;28;20025;-53
2022/01/22 09:03:30;;;;;;;32.22;15.25;;;;;;;5.01;99.11;103357.13;5055103;28;20527;-52
2022/01/22 09:05:56;;;;;;;32.70;16.50;;;;;;;5.03;99.32;103355.00;5056848;28;20051;-52
2022/01/22 09:08:24;;;;;;;29.95;15.68;;;;;;;5.04;98.67;103351.22;5035572;28;20071;-52
2022/01/22 09:10:50;;;;;;;31.70;16.42;;;;;;;5.05;99.01;103363.91;5035357;28;20410;-52
2022/01/22 09:13:16;;;;;;;29.60;14.85;;;;;;;5.07;98.67;103367.28;5035411;28;20431;-55
2022/01/22 09:15:42;;;;;;;29.33;14.32;;;;;;;5.13;98.78;103363.69;5035329;28;20018;-54
2022/01/22 09:18:08;;;;;;;28.17;13.73;;;;;;;5.18;98.64;103367.75;5035387;28;20029;-56
2022/01/22 09:23:05;;;;;;;30.42;14.48;;;;;;;5.20;97.80;103358.22;5054912;28;20033;-52
2022/01/22 09:25:30;;;;;;;34.08;16.23;;;;;;;5.25;97.96;103357.59;5054647;28;20111;-53
2022/01/22 09:27:56;;;;;;;38.85;19.95;;;;;;;5.25;97.70;103352.94;5054574;28;20107;-52
2022/01/22 09:30:22;;;;;;;40.63;20.75;;;;;;;5.29;97.95;103370.72;5054602;28;20116;-53
2022/01/22 09:32:48;;;;;;;33.10;16.95;;;;;;;5.29;97.64;103362.47;5054592;28;20075;-51
2022/01/22 09:35:14;;;;;;;37.58;18.95;;;;;;;5.29;97.89;103373.44;5054336;28;20025;-55
2022/01/22 09:37:39;;;;;;;34.78;17.63;;;;;;;5.32;97.81;103366.69;5054467;28;20515;-55
2022/01/22 09:40:05;;;;;;;33.33;18.58;;;;;;;5.33;97.69;103373.88;5054432;28;20028;-53
2022/01/22 09:42:31;;;;;;;33.70;17.13;;;;;;;5.33;97.60;103379.38;5054317;28;20040;-54
2022/01/22 09:44:56;;;;;;;32.85;17.20;;;;;;;5.35;97.59;103390.13;5054352;28;20025;-55
2022/01/22 09:47:21;;;;;;;34.50;18.10;;;;;;;5.37;97.31;103386.16;5054284;28;20025;-53
2022/01/22 09:49:48;;;;;;;35.90;19.52;;;;;;;5.40;97.66;103393.94;5054259;28;20029;-54
2022/01/22 09:52:14;;;;;;;35.72;17.90;;;;;;;5.40;97.58;103390.38;5054594;28;20053;-53
2022/01/22 09:54:39;;;;;;;32.20;17.23;;;;;;;5.42;97.03;103396.50;5054131;28;20037;-55
2022/01/22 09:57:06;;;;;;;31.38;17.20;;;;;;;5.44;97.06;103397.97;5054564;28;20035;-54
2022/01/22 09:59:31;;;;;;;32.67;17.15;;;;;;;5.44;97.20;103389.75;5054776;28;20021;-53
2022/01/22 10:02:14;;;;;;;30.95;15.93;;;;;;;5.44;96.91;103397.97;5054844;28;20104;-53
2022/01/22 10:04:42;;;;;;;32.33;17.27;;;;;;;5.42;97.07;103389.09;5053344;28;20025;-53
2022/01/22 10:07:15;;;;;;;31.67;16.40;;;;;;;5.44;97.10;103387.00;5054310;28;20021;-54
2022/01/22 10:10:04;;;;;;;29.50;16.30;;;;;;;5.49;96.75;103382.75;5054755;28;20388;-54
2022/01/22 10:12:42;;;;;;;31.40;16.27;;;;;;;5.52;96.57;103394.19;5054142;28;20412;-55
2022/01/22 10:15:13;;;;;;;30.40;16.42;;;;;;;5.49;97.09;103391.00;5054354;28;20147;-55
2022/01/22 10:17:59;;;;;;;32.17;16.65;;;;;;;5.57;96.85;103399.06;5054327;28;20029;-55
2022/01/22 10:20:24;;;;;;;27.67;15.50;;;;;;;5.58;96.48;103398.84;5053895;28;20041;-54
2022/01/22 10:23:08;;;;;;;32.17;17.53;;;;;;;5.60;96.28;103395.88;5052854;28;20028;-54
2022/01/22 10:25:40;;;;;;;33.88;19.10;;;;;;;5.56;96.09;103403.69;5053421;28;20268;-53
2022/01/22 10:28:09;;;;;;;35.83;18.55;;;;;;;5.56;96.13;103400.13;5052504;28;20025;-52
2022/01/22 10:30:41;;;;;;;31.52;17.20;;;;;;;5.56;96.44;103403.69;5053390;28;20107;-53
2022/01/22 10:35:44;;;;;;;28.48;15.90;;;;;;;5.63;96.49;103393.56;5053232;28;20033;-52
2022/01/22 10:38:10;;;;;;;30.52;16.65;;;;;;;5.67;96.55;103391.22;5053479;28;20024;-51
2022/01/22 10:40:38;;;;;;;31.73;18.48;;;;;;;5.65;95.73;103398.00;5053887;28;20025;-54
2022/01/22 10:43:30;;;;;;;29.58;15.65;;;;;;;5.72;95.58;103404.31;5053727;28;20392;-54
2022/01/22 10:46:07;;;;;;;31.02;15.85;;;;;;;5.62;95.49;103391.03;5053762;28;20025;-56
2022/01/22 10:48:34;;;;;;;29.65;15.40;;;;;;;5.67;95.16;103401.38;5053905;28;20245;-52
2022/01/22 10:51:06;;;;;;;27.30;15.60;;;;;;;5.70;95.32;103403.72;5053835;28;20102;-55
2022/01/22 10:53:43;;;;;;;28.90;16.42;;;;;;;5.63;95.64;103399.03;5053482;28;20057;-51
2022/01/22 10:56:14;;;;;;;30.05;16.80;;;;;;;5.56;95.53;103397.38;5053433;28;20025;-55
2022/01/22 10:58:59;;;;;;;39.13;22.10;;;;;;;5.70;95.15;103410.03;5053552;28;20033;-54
2022/01/22 11:01:43;;;;;;;31.20;16.33;;;;;;;5.68;95.64;103409.41;5053708;28;20029;-54
2022/01/22 11:04:08;;;;;;;29.73;17.67;;;;;;;5.67;95.81;103415.94;5053611;28;20400;-55
2022/01/22 11:06:34;;;;;;;33.70;18.42;;;;;;;5.71;95.88;103410.91;5053362;28;20508;-54
2022/01/22 11:08:59;;;;;;;33.45;17.98;;;;;;;5.69;95.34;103396.53;5053200;28;20093;-54
2022/01/22 11:11:25;;;;;;;30.92;16.42;;;;;;;5.74;95.36;103399.47;5052560;28;20033;-54
2022/01/22 11:13:50;;;;;;;33.33;16.38;;;;;;;5.75;95.32;103395.69;5052769;28;20032;-55
2022/01/22 11:16:16;;;;;;;28.85;15.65;;;;;;;5.76;95.56;103395.47;5052698;28;20040;-54
2022/01/22 11:18:46;;;;;;;29.67;15.25;;;;;;;5.75;95.29;103384.69;5052775;28;20029;-55
2022/01/22 11:21:12;;;;;;;28.80;15.27;;;;;;;5.79;95.43;103391.47;5052708;28;20039;-54
2022/01/22 11:23:37;;;;;;;29.70;16.40;;;;;;;5.83;95.15;103383.66;5052623;28;20101;-55
2022/01/22 11:26:03;;;;;;;28.98;16.63;;;;;;;5.80;95.06;103379.44;5052956;28;20067;-55
2022/01/22 11:28:29;;;;;;;28.80;16.05;;;;;;;5.82;94.85;103384.69;5052802;28;20032;-55
2022/01/22 11:30:58;;;;;;;29.70;16.92;;;;;;;5.75;95.07;103370.97;5053168;28;20036;-52
2022/01/22 11:33:24;;;;;;;29.13;15.70;;;;;;;5.85;94.76;103378.78;5052894;28;20054;-54
2022/01/22 11:36:00;;;;;;;31.65;16.52;;;;;;;5.86;94.97;103381.31;5052757;28;20032;-55
2022/01/22 11:38:36;;;;;;;30.33;15.82;;;;;;;5.89;94.25;103385.53;5053002;28;20048;-55
2022/01/22 11:41:20;;;;;;;30.20;16.42;;;;;;;5.86;94.89;103378.56;5052833;28;20036;-55
2022/01/22 11:44:15;;;;;;;29.08;16.20;;;;;;;5.83;94.63;103375.41;5052042;28;20410;-55
2022/01/22 11:46:52;;;;;;;31.80;16.90;;;;;;;5.78;94.84;103378.78;5052258;28;20039;-55
2022/01/22 11:49:25;;;;;;;32.25;17.17;;;;;;;5.83;94.97;103387.22;5053502;28;20028;-56
2022/01/22 11:52:13;;;;;;;30.90;16.43;;;;;;;5.87;95.28;103396.75;5052886;28;20100;-56
2022/01/22 11:55:00;;;;;;;32.13;16.98;;;;;;;5.78;95.88;103381.53;5052695;28;20318;-53
2022/01/22 11:57:27;;;;;;;31.50;16.38;;;;;;;5.86;95.91;103388.69;5052958;28;20025;-54
2022/01/22 12:00:14;;;;;;;31.05;17.90;;;;;;;5.84;95.45;103380.69;5052716;28;20032;-54
2022/01/22 12:02:40;;;;;;;35.35;16.90;;;;;;;5.82;95.84;103388.28;5052730;28;20056;-54
2022/01/22 12:05:05;;;;;;;32.03;17.50;;;;;;;5.84;96.23;103377.94;5052675;28;20076;-55
2022/01/22 12:07:35;;;;;;;30.27;16.77;;;;;;;5.88;95.99;103383.84;5052641;28;20040;-55
2022/01/22 12:10:18;;;;;;;34.00;17.60;;;;;;;5.91;95.90;103377.94;5052564;28;20064;-54
2022/01/22 12:15:30;;;;;;;29.92;16.80;;;;;;;5.91;96.10;103376.00;5052752;28;20575;-56
2022/01/22 12:18:04;;;;;;;28.58;16.77;;;;;;;5.90;95.87;103371.56;5051536;28;20040;-55
2022/01/22 12:20:42;;;;;;;28.38;16.35;;;;;;;5.97;94.95;103370.75;5052108;28;20451;-56
2022/01/22 12:23:33;;;;;;;28.17;15.20;;;;;;;5.99;95.18;103372.25;5052564;28;20047;-51
2022/01/22 12:26:00;;;;;;;29.92;16.50;;;;;;;5.91;95.08;103370.53;5047624;28;20484;-54
2022/01/22 12:28:52;;;;;;;30.35;17.13;;;;;;;5.97;95.21;103379.81;5054869;28;20078;-55
2022/01/22 12:31:19;;;;;;;28.92;16.48;;;;;;;5.88;95.37;103381.97;5054474;28;20119;-54
2022/01/22 12:33:53;;;;;;;28.73;16.90;;;;;;;5.92;95.55;103391.44;5055995;28;20391;-54
2022/01/22 12:36:27;;;;;;;31.38;17.25;;;;;;;5.91;95.53;103383.44;5055646;28;20024;-54
2022/01/22 12:39:10;;;;;;;33.20;18.30;;;;;;;5.92;95.57;103385.94;5055771;28;20020;-54
2022/01/22 12:41:48;;;;;;;31.77;18.52;;;;;;;5.79;96.33;103380.47;5056074;28;20373;-55
2022/01/22 12:46:51;;;;;;;31.73;18.50;;;;;;;5.80;97.01;103384.06;5055784;28;20397;-55
2022/01/22 12:49:18;;;;;;;31.75;18.40;;;;;;;5.76;96.83;103384.47;5055771;28;20029;-53
2022/01/22 12:51:44;;;;;;;33.28;19.20;;;;;;;5.77;96.62;103377.09;5055774;28;20049;-55
2022/01/22 12:54:09;;;;;;;33.85;19.63;;;;;;;5.76;96.87;103389.13;5055637;28;20035;-52
2022/01/22 12:56:51;;;;;;;37.00;21.77;;;;;;;5.75;96.81;103387.44;5055268;28;20029;-53